Time;durP1;ratioP1;P1;durP2;ratioP2;P2;SDS_P1;SDS_P2;PMS_P1;PMS_P2;Temp;Humidity;BMP_temperature;BMP_pressure;BME280_temperature;BME280_humidity;BME280_pressure;Samples;Min_cycle;Max_cycle;Signal;HPM_P1;HPM_P2
2022/01/22 00:00:27;;;;;;;18.30;4.85;;;;;;;5.58;100.00;103519.88;5086334;28;20059;-82
2022/01/22 00:02:53;;;;;;;18.65;6.00;;;;;;;5.57;100.00;103525.91;5081682;28;20032;-81
2022/01/22 00:05:20;;;;;;;16.90;7.03;;;;;;;5.60;100.00;103530.44;5090894;28;20090;-80
2022/01/22 00:07:46;;;;;;;21.00;5.32;;;;;;;5.60;100.00;103524.31;5086224;28;20055;-82
2022/01/22 00:10:14;;;;;;;12.82;4.70;;;;;;;5.61;100.00;103526.16;5098555;28;20031;-81
2022/01/22 00:12:55;;;;;;;15.65;4.70;;;;;;;5.63;100.00;103517.66;5092930;28;20019;-83
2022/01/22 00:15:24;;;;;;;21.42;6.10;;;;;;;5.66;100.00;103527.44;5084187;28;20472;-82
2022/01/22 00:17:50;;;;;;;21.55;4.80;;;;;;;5.68;100.00;103521.53;5086566;28;20031;-82
2022/01/22 00:20:18;;;;;;;19.92;4.95;;;;;;;5.74;100.00;103516.78;5080535;28;20042;-82
2022/01/22 00:22:44;;;;;;;18.83;4.30;;;;;;;5.73;100.00;103512.34;5092348;28;20024;-82
2022/01/22 00:25:11;;;;;;;16.52;6.05;;;;;;;5.74;100.00;103508.06;5079604;28;20437;-82
2022/01/22 00:27:39;;;;;;;15.27;4.30;;;;;;;5.72;100.00;103502.72;5099758;28;20032;-82
2022/01/22 00:30:06;;;;;;;17.55;3.90;;;;;;;5.79;100.00;103511.03;5086387;28;20036;-82
2022/01/22 00:32:32;;;;;;;17.60;4.28;;;;;;;5.81;100.00;103506.84;5078568;28;20391;-82
2022/01/22 00:34:57;;;;;;;18.08;4.25;;;;;;;5.80;100.00;103502.41;5110013;28;20027;-82
2022/01/22 00:37:23;;;;;;;19.35;3.58;;;;;;;5.78;100.00;103510.13;5105998;28;20076;-82
2022/01/22 00:39:48;;;;;;;18.05;3.05;;;;;;;5.77;100.00;103503.06;5090332;28;20038;-80
2022/01/22 00:42:15;;;;;;;14.48;4.10;;;;;;;5.80;100.00;103503.28;5109060;28;20471;-81
2022/01/22 00:44:42;;;;;;;11.95;4.15;;;;;;;5.86;100.00;103502.88;5083738;28;20030;-82
2022/01/22 00:47:09;;;;;;;13.88;3.10;;;;;;;5.82;100.00;103506.03;5086148;28;20036;-81
2022/01/22 00:49:35;;;;;;;20.52;4.13;;;;;;;5.79;100.00;103498.84;5087764;28;20067;-81
2022/01/22 00:52:01;;;;;;;18.05;3.45;;;;;;;5.81;100.00;103499.91;5105595;28;20380;-82
2022/01/22 00:54:26;;;;;;;19.33;3.20;;;;;;;5.85;100.00;103506.28;5071710;28;20031;-82
2022/01/22 00:56:51;;;;;;;12.02;3.80;;;;;;;5.83;100.00;103497.41;5104023;28;20028;-83
2022/01/22 00:59:17;;;;;;;13.95;2.92;;;;;;;5.81;100.00;103499.91;5103096;28;20031;-82
2022/01/22 01:01:42;;;;;;;10.50;2.33;;;;;;;5.82;100.00;103500.78;5087665;28;20073;-82
2022/01/22 01:04:10;;;;;;;10.98;2.85;;;;;;;5.78;100.00;103501.34;5101371;28;20111;-82
2022/01/22 01:06:38;;;;;;;14.23;2.40;;;;;;;5.78;100.00;103503.97;5107692;28;20482;-81
2022/01/22 01:09:08;;;;;;;16.02;2.40;;;;;;;5.78;100.00;103506.56;5104842;28;20434;-81
2022/01/22 01:11:43;;;;;;;17.75;2.88;;;;;;;5.78;100.00;103509.19;5106143;28;20092;-81
2022/01/22 01:14:11;;;;;;;11.88;2.15;;;;;;;5.78;100.00;103509.19;5106553;28;20109;-82
2022/01/22 01:32:56;;;;;;;14.13;3.28;;;;;;;5.90;100.00;103484.94;5114295;28;20395;-82
2022/01/22 01:35:22;;;;;;;12.98;3.10;;;;;;;5.91;100.00;103491.06;5081650;28;20111;-81
2022/01/22 01:37:50;;;;;;;14.05;3.13;;;;;;;5.88;100.00;103485.63;5104222;28;20059;-83
2022/01/22 01:40:19;;;;;;;13.38;3.25;;;;;;;5.94;100.00;103487.78;5102358;28;20027;-82
2022/01/22 01:42:53;;;;;;;12.48;3.22;;;;;;;5.92;100.00;103492.91;5084443;28;20032;-81
2022/01/22 01:45:19;;;;;;;9.65;2.70;;;;;;;5.98;100.00;103489.88;5099409;28;20055;-82
2022/01/22 01:47:47;;;;;;;11.63;4.03;;;;;;;5.99;100.00;103491.72;5097453;28;20064;-82
2022/01/22 01:50:13;;;;;;;12.98;3.55;;;;;;;5.97;100.00;103486.34;5101972;28;20517;-82
2022/01/22 01:52:49;;;;;;;15.05;2.65;;;;;;;6.00;100.00;103502.28;5096924;28;20028;-82
2022/01/22 01:55:19;;;;;;;17.25;2.60;;;;;;;6.00;100.00;103502.28;5095243;28;20436;-82
2022/01/22 01:57:46;;;;;;;9.70;2.70;;;;;;;6.01;100.00;103497.97;5097570;28;20023;-82
2022/01/22 02:00:20;;;;;;;20.83;3.17;;;;;;;6.02;100.00;103505.03;5103536;28;20044;-81
2022/01/22 02:02:47;;;;;;;12.00;2.75;;;;;;;6.03;100.00;103504.25;5095525;28;20063;-81
2022/01/22 02:05:13;;;;;;;13.30;2.95;;;;;;;6.03;100.00;103496.41;5104912;28;20028;-81
2022/01/22 02:07:41;;;;;;;15.95;2.88;;;;;;;6.08;100.00;103500.28;5100448;28;20084;-83
2022/01/22 02:10:11;;;;;;;17.30;3.70;;;;;;;6.09;100.00;103502.13;5094759;28;20028;-82
2022/01/22 02:26:02;;;;;;;7.38;1.95;;;;;;;6.12;100.00;103486.66;5106859;28;20486;-82
2022/01/22 02:28:28;;;;;;;10.07;2.45;;;;;;;6.12;100.00;103493.56;5084191;28;20047;-82
2022/01/22 02:31:01;;;;;;;11.57;2.17;;;;;;;6.12;100.00;103490.97;5107058;28;20118;-82
2022/01/22 02:36:12;;;;;;;14.07;2.90;;;;;;;6.13;100.00;103485.88;5096049;28;20288;-82
2022/01/22 02:38:50;;;;;;;11.25;2.03;;;;;;;6.14;100.00;103495.50;5083353;28;20164;-82
2022/01/22 02:41:19;;;;;;;13.50;2.88;;;;;;;6.15;100.00;103501.69;5098930;28;20040;-82
2022/01/22 02:43:48;;;;;;;13.35;2.10;;;;;;;6.13;100.00;103492.78;5073726;28;20032;-82
2022/01/22 02:46:24;;;;;;;8.68;2.20;;;;;;;6.11;100.00;103504.84;5090502;28;20377;-82
2022/01/22 02:48:52;;;;;;;12.07;2.40;;;;;;;6.11;100.00;103499.63;5063045;28;20039;-80
2022/01/22 02:51:17;;;;;;;5.35;2.22;;;;;;;6.08;100.00;103498.56;5066218;28;20035;-81
2022/01/22 02:53:43;;;;;;;8.50;2.20;;;;;;;6.11;100.00;103491.78;5085105;28;20495;-82
2022/01/22 02:56:09;;;;;;;17.90;3.25;;;;;;;6.11;100.00;103489.16;5084320;28;20034;-81
2022/01/22 02:58:34;;;;;;;11.80;2.75;;;;;;;6.08;100.00;103500.28;5060626;28;20024;-82
2022/01/22 03:01:00;;;;;;;16.20;4.05;;;;;;;6.08;100.00;103502.91;5081377;28;20120;-82
2022/01/22 03:03:26;;;;;;;10.30;3.40;;;;;;;6.09;100.00;103504.72;5060533;28;20025;-82
2022/01/22 03:05:51;;;;;;;15.07;2.72;;;;;;;6.09;100.00;103496.88;5058468;28;20008;-83
2022/01/22 03:08:17;;;;;;;11.20;2.10;;;;;;;6.13;100.00;103492.78;5080661;28;20025;-83
2022/01/22 03:10:50;;;;;;;9.48;3.08;;;;;;;6.13;100.00;103490.16;5075889;28;20544;-82
2022/01/22 03:16:13;;;;;;;;;;;;;;;6.11;100.00;103499.63;5087804;28;20031;-83
2022/01/22 03:21:56;;;;;;;9.50;2.20;;;;;;;6.09;100.00;103507.34;4977887;28;20051;-81
2022/01/22 03:27:22;;;;;;;12.63;2.00;;;;;;;6.07;100.00;103506.28;5061056;28;20124;-82
2022/01/22 03:29:47;;;;;;;9.73;2.38;;;;;;;6.07;100.00;103506.28;5080033;28;20029;-82
2022/01/22 03:32:13;;;;;;;14.48;2.10;;;;;;;6.05;100.00;103508.78;5077266;28;20036;-82
2022/01/22 03:34:54;;;;;;;15.77;2.85;;;;;;;6.06;100.00;103513.25;5086847;28;20039;-82
2022/01/22 03:37:19;;;;;;;20.10;2.00;;;;;;;6.10;100.00;103514.38;5083858;28;20058;-81
2022/01/22 03:39:44;;;;;;;10.07;2.22;;;;;;;6.07;100.00;103509.81;5083094;28;20052;-82
2022/01/22 03:42:10;;;;;;;11.63;1.85;;;;;;;6.10;100.00;103503.91;5066316;28;20066;-82
2022/01/22 03:44:35;;;;;;;15.75;2.45;;;;;;;6.12;100.00;103501.41;5070445;28;20085;-82
2022/01/22 03:47:00;;;;;;;9.18;2.33;;;;;;;6.13;100.00;103509.41;5057298;28;20116;-82
2022/01/22 03:49:26;;;;;;;22.13;2.30;;;;;;;6.12;100.00;103504.97;5081344;28;20020;-81
2022/01/22 03:51:51;;;;;;;14.10;1.80;;;;;;;6.07;100.00;103504.56;5059381;28;20032;-83
2022/01/22 03:54:16;;;;;;;11.80;2.15;;;;;;;6.07;100.00;103503.69;5082112;28;20035;-82
2022/01/22 03:56:45;;;;;;;11.48;1.90;;;;;;;6.05;100.00;103506.19;5075533;28;20024;-82
2022/01/22 03:59:11;;;;;;;6.95;1.52;;;;;;;6.03;100.00;103512.06;5075190;28;20486;-82
2022/01/22 04:02:03;;;;;;;12.05;1.83;;;;;;;6.03;100.00;103512.06;5061781;28;20063;-82
2022/01/22 04:04:36;;;;;;;11.25;1.80;;;;;;;6.02;100.00;103513.78;5079328;28;20041;-82
2022/01/22 04:07:41;;;;;;;6.30;1.83;;;;;;;6.06;100.00;103513.25;5059958;28;20032;-83
2022/01/22 04:10:02;;;;;;;6.85;1.85;;;;;;;6.05;100.00;103514.03;5088536;28;20036;-81
2022/01/22 04:15:26;;;;;;;9.48;1.48;;;;;;;6.01;100.00;103513.66;5064545;28;20097;-83
2022/01/22 04:28:53;;;;;;;13.18;1.77;;;;;;;6.04;100.00;103520.03;5048804;28;20033;-80
2022/01/22 04:31:19;;;;;;;10.43;2.20;;;;;;;6.06;100.00;103522.75;5081071;28;20016;-82
2022/01/22 04:33:45;;;;;;;9.82;1.80;;;;;;;6.08;100.00;103516.88;5062951;28;20120;-83
2022/01/22 04:36:11;;;;;;;13.10;2.40;;;;;;;6.10;100.00;103518.69;5085195;28;20107;-81
2022/01/22 04:38:37;;;;;;;7.28;1.88;;;;;;;6.14;100.00;103523.38;5077922;28;20084;-82
2022/01/22 04:41:04;;;;;;;11.55;2.28;;;;;;;6.16;100.00;103522.72;5086073;28;20052;-82
2022/01/22 04:43:32;;;;;;;14.30;2.53;;;;;;;6.21;100.00;103523.03;5062853;28;20061;-83
2022/01/22 04:46:15;;;;;;;11.90;2.17;;;;;;;6.24;100.00;103520.69;5083655;28;20044;-82
2022/01/22 04:56:35;;;;;;;14.68;1.90;;;;;;;6.29;100.00;103506.25;5101658;28;20047;-83
2022/01/22 04:59:02;;;;;;;13.07;2.00;;;;;;;6.32;100.00;103510.81;5101854;28;20023;-82
2022/01/22 05:01:28;;;;;;;21.42;3.03;;;;;;;6.27;100.00;103504.31;5089183;28;20030;-83
2022/01/22 05:03:55;;;;;;;12.93;1.98;;;;;;;6.25;100.00;103498.97;5085357;28;20031;-83
2022/01/22 05:06:21;;;;;;;12.23;2.03;;;;;;;6.26;100.00;103505.13;5102952;28;20034;-81
2022/01/22 05:08:46;;;;;;;17.10;2.83;;;;;;;6.27;100.00;103505.25;5086857;28;20471;-82
2022/01/22 05:11:12;;;;;;;13.25;2.03;;;;;;;6.26;100.00;103500.78;5097592;28;20055;-82
2022/01/22 05:13:37;;;;;;;8.95;2.17;;;;;;;6.24;100.00;103495.44;5081132;28;20028;-82
2022/01/22 05:16:03;;;;;;;15.25;1.73;;;;;;;6.25;100.00;103496.34;5083009;28;20387;-82
2022/01/22 05:18:28;;;;;;;16.30;2.00;;;;;;;6.24;100.00;103499.78;5106161;28;20058;-82
2022/01/22 05:21:05;;;;;;;8.50;2.63;;;;;;;6.22;100.00;103494.41;5100662;28;20024;-82
2022/01/22 05:23:32;;;;;;;4.82;1.38;;;;;;;6.22;100.00;103494.41;5083255;28;20032;-82
2022/01/22 05:26:01;;;;;;;13.10;1.55;;;;;;;6.21;100.00;103496.91;5088216;28;20031;-82
2022/01/22 05:36:59;;;;;;;8.90;2.47;;;;;;;6.25;100.00;103496.34;5102732;28;20074;-80
2022/01/22 05:39:25;;;;;;;6.80;1.73;;;;;;;6.23;100.00;103495.34;5100635;28;20027;-82
2022/01/22 05:41:51;;;;;;;10.98;2.15;;;;;;;6.25;100.00;103496.34;5083256;28;20047;-84
2022/01/22 05:44:17;;;;;;;15.00;2.35;;;;;;;6.25;100.00;103504.19;5082992;28;20509;-81
2022/01/22 05:46:42;;;;;;;10.18;2.05;;;;;;;6.25;100.00;103506.81;5111715;28;20044;-81
2022/01/22 05:49:08;;;;;;;10.18;2.05;;;;;;;6.23;100.00;103511.03;5100897;28;20032;-81
2022/01/22 05:51:39;;;;;;;14.75;2.00;;;;;;;6.22;100.00;103503.97;5101403;28;20102;-82
2022/01/22 05:59:47;;;;;;;13.38;2.22;;;;;;;6.26;100.00;103510.34;5111035;28;20070;-82
2022/01/22 06:02:14;;;;;;;15.57;2.13;;;;;;;6.27;100.00;103520.91;5102532;28;20039;-82
2022/01/22 06:04:41;;;;;;;7.38;2.30;;;;;;;6.26;100.00;103519.09;5095332;28;20110;-82
2022/01/22 06:07:08;;;;;;;6.35;1.88;;;;;;;6.27;100.00;103518.31;5086534;28;20060;-82
2022/01/22 06:09:37;;;;;;;18.67;2.65;;;;;;;6.32;100.00;103521.25;5107782;28;20028;-81
2022/01/22 06:14:35;;;;;;;12.77;2.38;;;;;;;6.31;100.00;103522.97;5098828;28;20032;-82
2022/01/22 06:17:01;;;;;;;8.95;2.60;;;;;;;6.32;100.00;103524.81;5077011;28;20491;-83
2022/01/22 06:19:27;;;;;;;8.98;2.38;;;;;;;6.33;100.00;103524.00;5098309;28;20030;-82
2022/01/22 06:21:53;;;;;;;18.23;2.58;;;;;;;6.32;100.00;103521.25;5081172;28;20046;-82
2022/01/22 06:24:19;;;;;;;12.60;2.58;;;;;;;6.32;100.00;103527.44;5080494;28;20024;-82
2022/01/22 06:26:45;;;;;;;10.90;2.70;;;;;;;6.35;100.00;103532.88;5084802;28;20395;-82
2022/01/22 06:29:11;;;;;;;14.75;2.13;;;;;;;6.33;100.00;103539.69;5096382;28;20552;-82
2022/01/22 06:31:37;;;;;;;19.70;2.42;;;;;;;6.33;100.00;103539.69;5089461;28;20024;-84
2022/01/22 06:34:03;;;;;;;12.00;2.63;;;;;;;6.33;100.00;103539.69;5103148;28;20046;-82
2022/01/22 06:36:29;;;;;;;9.43;3.00;;;;;;;6.33;100.00;103550.16;5089773;28;20026;-83
2022/01/22 06:38:59;;;;;;;10.82;2.30;;;;;;;6.32;100.00;103542.19;5084225;28;20110;-85
2022/01/22 06:44:08;;;;;;;;;;;;;;;6.34;100.00;103551.97;5097986;28;20050;-83
2022/01/22 06:46:35;;;;;;;11.80;2.50;;;;;;;6.32;100.00;103550.97;5104996;28;19912;-82
2022/01/22 06:49:02;;;;;;;9.63;2.92;;;;;;;6.33;100.00;103549.25;5093609;28;20159;-83
2022/01/22 06:51:28;;;;;;;11.63;3.08;;;;;;;6.30;100.00;103554.25;5105412;28;20120;-83
2022/01/22 06:53:55;;;;;;;13.13;2.95;;;;;;;6.30;100.00;103559.47;5099156;28;20023;-82
2022/01/22 06:56:21;;;;;;;15.52;3.40;;;;;;;6.28;100.00;103556.75;5078931;28;20044;-82
2022/01/22 06:58:48;;;;;;;6.07;2.45;;;;;;;6.26;100.00;103555.69;5076599;28;20080;-83
2022/01/22 07:01:14;;;;;;;12.77;3.13;;;;;;;6.28;100.00;103564.59;5100216;28;20036;-82
2022/01/22 07:03:39;;;;;;;12.85;3.08;;;;;;;6.32;100.00;103558.81;5088141;28;20036;-82
2022/01/22 07:06:05;;;;;;;11.70;3.17;;;;;;;6.28;100.00;103561.97;5077489;28;20024;-83
2022/01/22 07:08:30;;;;;;;8.27;3.30;;;;;;;6.28;100.00;103564.59;5076790;28;20421;-79
2022/01/22 07:10:55;;;;;;;26.30;3.78;;;;;;;6.27;100.00;103559.22;5104845;28;20028;-82
2022/01/22 07:13:21;;;;;;;10.63;3.30;;;;;;;6.28;100.00;103567.22;5107158;28;20043;-82
2022/01/22 07:15:46;;;;;;;11.23;3.10;;;;;;;6.26;100.00;103560.94;5102706;28;20337;-82
2022/01/22 07:18:13;;;;;;;10.32;3.53;;;;;;;6.27;100.00;103564.44;5090573;28;20024;-83
2022/01/22 07:20:41;;;;;;;14.00;3.58;;;;;;;6.27;100.00;103557.53;5105918;28;20059;-81
2022/01/22 07:24:07;;;;;;;10.95;3.80;;;;;;;6.26;100.00;103557.41;5076976;28;20361;-83
2022/01/22 07:25:56;;;;;;;13.13;3.63;;;;;;;6.27;100.00;103562.75;5089938;28;20134;-83
2022/01/22 07:28:21;;;;;;;11.35;3.45;;;;;;;6.30;100.00;103556.88;5061558;28;20527;-82
2022/01/22 07:30:48;;;;;;;11.85;3.53;;;;;;;6.35;100.00;103547.69;5084338;28;20484;-82
2022/01/22 07:33:14;;;;;;;10.45;3.38;;;;;;;6.36;100.00;103555.63;5087739;28;20028;-82
2022/01/22 07:35:39;;;;;;;13.77;3.40;;;;;;;6.37;100.00;103546.97;5099717;28;20038;-82
2022/01/22 07:38:05;;;;;;;15.45;3.78;;;;;;;6.38;100.00;103547.91;5113735;28;20114;-82
2022/01/22 07:40:30;;;;;;;12.02;3.88;;;;;;;6.41;100.00;103546.41;5093113;28;20055;-81
2022/01/22 07:42:55;;;;;;;13.50;3.70;;;;;;;6.46;100.00;103545.84;5105034;28;20024;-81
2022/01/22 07:45:21;;;;;;;11.25;4.03;;;;;;;6.48;100.00;103544.28;5106879;28;20031;-82
2022/01/22 07:47:46;;;;;;;9.70;3.72;;;;;;;6.48;100.00;103539.97;5097907;28;20487;-83
2022/01/22 07:50:12;;;;;;;6.20;3.20;;;;;;;6.47;100.00;103535.53;5085540;28;20467;-82
2022/01/22 07:52:37;;;;;;;10.27;3.17;;;;;;;6.53;100.00;103533.38;5099206;28;20027;-82
2022/01/22 07:55:07;;;;;;;10.85;3.30;;;;;;;6.53;100.00;103538.63;5098080;28;20055;-82
2022/01/22 07:57:33;;;;;;;12.63;4.68;;;;;;;6.55;100.00;103542.28;5104437;28;20020;-83
2022/01/22 07:59:59;;;;;;;11.38;3.50;;;;;;;6.53;100.00;103538.63;5081361;28;20038;-82
2022/01/22 08:02:24;;;;;;;10.38;3.35;;;;;;;6.52;100.00;103535.88;5105311;28;20406;-83
2022/01/22 08:04:50;;;;;;;9.68;4.13;;;;;;;6.51;100.00;103542.84;5083214;28;20483;-82
2022/01/22 08:07:15;;;;;;;11.02;3.28;;;;;;;6.51;100.00;103539.28;5099791;27;20032;-80
2022/01/22 08:09:41;;;;;;;11.52;3.67;;;;;;;6.51;100.00;103528.81;5103049;27;20468;-80
2022/01/22 08:12:07;;;;;;;8.45;3.65;;;;;;;6.52;100.00;103525.41;5098317;28;20028;-77
2022/01/22 08:14:32;;;;;;;9.68;3.83;;;;;;;6.54;100.00;103523.84;5110326;27;20035;-80
2022/01/22 08:16:57;;;;;;;16.77;6.05;;;;;;;6.55;100.00;103536.09;5103007;27;20056;-76
2022/01/22 08:19:23;;;;;;;15.02;4.95;;;;;;;6.54;100.00;103539.53;5084863;28;20024;-76
2022/01/22 08:21:48;;;;;;;10.55;5.15;;;;;;;6.52;100.00;103535.88;5114755;27;20023;-76
2022/01/22 08:24:15;;;;;;;13.63;3.85;;;;;;;6.49;100.00;103535.66;5089670;28;20031;-76
2022/01/22 08:26:48;;;;;;;13.73;4.07;;;;;;;6.49;100.00;103540.88;5103595;27;20047;-75
2022/01/22 08:29:14;;;;;;;9.68;3.92;;;;;;;6.51;100.00;103544.50;5110519;27;20033;-77
2022/01/22 08:32:02;;;;;;;13.02;4.50;;;;;;;6.55;100.00;103539.66;5081636;28;20488;-75
2022/01/22 08:37:09;;;;;;;11.57;4.50;;;;;;;6.62;100.00;103538.44;5113226;27;20094;-76
2022/01/22 08:39:34;;;;;;;11.38;4.00;;;;;;;6.63;100.00;103540.22;5100838;27;20031;-77
2022/01/22 08:41:59;;;;;;;8.02;3.85;;;;;;;6.65;100.00;103543.88;5101835;27;20032;-78
2022/01/22 08:44:25;;;;;;;16.90;4.40;;;;;;;6.64;100.00;103552.50;5103688;28;20038;-78
2022/01/22 08:46:50;;;;;;;15.63;4.28;;;;;;;6.61;100.00;103552.28;5109221;28;20035;-76
2022/01/22 08:49:15;;;;;;;6.53;4.72;;;;;;;6.64;100.00;103552.50;5085906;28;20024;-75
2022/01/22 08:51:41;;;;;;;13.95;4.38;;;;;;;6.64;100.00;103557.75;5110309;28;20052;-77
2022/01/22 08:54:08;;;;;;;9.50;4.10;;;;;;;6.62;100.00;103566.28;5099380;28;20373;-76
2022/01/22 08:56:34;;;;;;;14.50;4.68;;;;;;;6.62;100.00;103559.34;5103732;28;20031;-76
2022/01/22 08:58:59;;;;;;;14.45;4.15;;;;;;;6.60;100.00;103560.03;5101560;28;20032;-77
2022/01/22 09:01:25;;;;;;;13.75;3.90;;;;;;;6.58;100.00;103563.44;5085311;28;20024;-76
2022/01/22 09:03:51;;;;;;;16.45;5.25;;;;;;;6.62;100.00;103569.81;5078398;28;20016;-77
2022/01/22 09:06:17;;;;;;;13.68;4.43;;;;;;;6.61;100.00;103565.38;5100120;28;20110;-76
2022/01/22 09:08:50;;;;;;;10.77;4.03;;;;;;;6.65;100.00;103563.91;5104476;28;20024;-77
2022/01/22 09:11:17;;;;;;;11.65;4.70;;;;;;;6.69;100.00;103566.88;5100575;28;20471;-75
2022/01/22 09:13:42;;;;;;;14.25;4.40;;;;;;;6.70;100.00;103570.38;5083588;28;20026;-77
2022/01/22 09:16:07;;;;;;;16.60;4.50;;;;;;;6.70;100.00;103573.94;5101360;28;20403;-77
2022/01/22 09:18:33;;;;;;;13.70;4.38;;;;;;;6.66;100.00;103569.25;5087490;28;20508;-76
2022/01/22 09:23:25;;;;;;;16.23;4.15;;;;;;;6.71;100.00;103578.34;5112479;28;20035;-77
2022/01/22 09:25:50;;;;;;;6.90;4.28;;;;;;;6.72;100.00;103579.28;5102540;28;20388;-74
2022/01/22 09:28:16;;;;;;;13.48;4.15;;;;;;;6.74;100.00;103585.53;5083774;28;20027;-76
2022/01/22 09:30:43;;;;;;;8.60;3.78;;;;;;;6.75;100.00;103577.81;5107150;28;20046;-75
2022/01/22 09:33:09;;;;;;;19.40;4.32;;;;;;;6.77;100.00;103582.22;5101934;28;20406;-75
2022/01/22 09:35:35;;;;;;;12.00;4.05;;;;;;;6.78;100.00;103590.19;5086964;28;20103;-76
2022/01/22 09:38:00;;;;;;;15.85;4.53;;;;;;;6.86;100.00;103601.25;5101644;28;20031;-75
2022/01/22 09:40:28;;;;;;;13.05;4.18;;;;;;;6.88;100.00;103599.69;5096232;28;20536;-77
2022/01/22 09:42:55;;;;;;;8.23;4.35;;;;;;;6.88;100.00;103594.44;5099335;28;20035;-75
2022/01/22 09:45:22;;;;;;;12.38;4.72;;;;;;;6.87;100.00;103608.31;5076116;28;20055;-74
2022/01/22 09:47:49;;;;;;;13.57;4.65;;;;;;;6.87;100.00;103611.84;5100293;28;20044;-76
2022/01/22 09:50:20;;;;;;;12.35;4.97;;;;;;;6.88;100.00;103607.53;5099580;28;20031;-76
2022/01/22 09:52:45;;;;;;;8.57;4.50;;;;;;;6.91;100.00;103615.63;5106789;28;20471;-77
2022/01/22 09:55:12;;;;;;;14.77;4.32;;;;;;;6.91;100.00;103610.38;5099828;28;20024;-77
2022/01/22 09:57:38;;;;;;;10.20;4.10;;;;;;;6.90;100.00;103608.56;5097732;28;20027;-75
2022/01/22 10:00:12;;;;;;;11.32;4.68;;;;;;;6.92;100.00;103604.38;5098933;28;20042;-77
2022/01/22 10:02:49;;;;;;;9.60;4.60;;;;;;;6.95;100.00;103607.19;5103360;28;20475;-75
2022/01/22 10:05:30;;;;;;;17.63;5.30;;;;;;;6.96;100.00;103593.31;5086288;28;20073;-77
2022/01/22 10:08:20;;;;;;;17.48;4.82;;;;;;;7.00;100.00;103605.84;5082752;28;20039;-77
2022/01/22 10:10:46;;;;;;;13.35;4.25;;;;;;;7.06;100.00;103610.63;5080718;28;20349;-74
2022/01/22 10:13:13;;;;;;;15.82;5.07;;;;;;;7.11;100.00;103608.34;5103051;27;20027;-75
2022/01/22 10:15:39;;;;;;;9.82;4.65;;;;;;;7.12;100.00;103615.41;5086860;28;20531;-76
2022/01/22 10:18:06;;;;;;;11.32;4.57;;;;;;;7.12;100.00;103611.06;5082089;28;20046;-76
2022/01/22 10:20:37;;;;;;;13.48;4.45;;;;;;;7.12;100.00;103615.41;5098674;28;20103;-75
2022/01/22 10:23:18;;;;;;;14.18;5.30;;;;;;;7.14;100.00;103625.22;5099288;28;20028;-76
2022/01/22 10:25:50;;;;;;;16.27;5.43;;;;;;;7.15;100.00;103631.34;5099606;28;20093;-77
2022/01/22 10:28:21;;;;;;;11.07;5.13;;;;;;;7.18;100.00;103639.47;5086552;28;20106;-76
2022/01/22 10:30:58;;;;;;;13.93;5.10;;;;;;;7.16;100.00;103638.41;5078489;28;20034;-77
2022/01/22 10:33:34;;;;;;;13.82;5.38;;;;;;;7.16;100.00;103623.63;5096245;28;20036;-76
2022/01/22 10:36:14;;;;;;;16.23;4.97;;;;;;;7.16;100.00;103610.53;5103319;28;20035;-76
2022/01/22 10:38:46;;;;;;;16.55;5.35;;;;;;;7.12;100.00;103616.31;5078421;28;20446;-76
2022/01/22 10:41:14;;;;;;;13.57;5.38;;;;;;;7.16;100.00;103620.09;5102579;28;20028;-78
2022/01/22 10:43:51;;;;;;;14.65;6.30;;;;;;;7.18;100.00;103624.66;5085598;28;20020;-75
2022/01/22 10:46:20;;;;;;;13.18;5.70;;;;;;;7.20;100.00;103625.69;5094793;28;20045;-76
2022/01/22 10:49:15;;;;;;;15.48;5.45;;;;;;;7.19;100.00;103628.16;5097228;28;20035;-77
2022/01/22 10:51:46;;;;;;;17.48;6.00;;;;;;;7.19;100.00;103623.88;5094999;28;20035;-76
2022/01/22 10:54:13;;;;;;;16.73;7.07;;;;;;;7.21;100.00;103618.72;5081032;28;20070;-76
2022/01/22 10:56:40;;;;;;;11.68;6.75;;;;;;;7.21;100.00;103609.16;5092256;27;20123;-75
2022/01/22 10:59:11;;;;;;;12.05;6.03;;;;;;;7.23;100.00;103619.75;5105618;27;20020;-75
2022/01/22 11:01:52;;;;;;;13.77;5.68;;;;;;;7.22;100.00;103625.81;5101299;28;20093;-77
2022/01/22 11:04:34;;;;;;;16.42;6.60;;;;;;;7.17;100.00;103619.31;5088845;28;20118;-76
2022/01/22 11:07:03;;;;;;;13.15;6.47;;;;;;;7.19;100.00;103622.94;5104780;28;20426;-76
2022/01/22 11:09:30;;;;;;;12.13;6.50;;;;;;;7.20;100.00;103614.28;5093682;28;20024;-76
2022/01/22 11:12:00;;;;;;;15.88;5.95;;;;;;;7.22;100.00;103612.72;5096861;28;20023;-76
2022/01/22 11:14:28;;;;;;;14.55;6.95;;;;;;;7.23;100.00;103609.28;5102422;28;20110;-76
2022/01/22 11:16:54;;;;;;;19.45;6.53;;;;;;;7.23;100.00;103622.38;5105610;27;20039;-76
2022/01/22 11:19:30;;;;;;;16.35;6.93;;;;;;;7.23;100.00;103624.97;5116918;27;20056;-76
2022/01/22 11:21:57;;;;;;;15.50;7.25;;;;;;;7.22;100.00;103628.41;5106136;27;20028;-76
2022/01/22 11:24:24;;;;;;;22.92;7.63;;;;;;;7.26;100.00;103631.38;5117234;27;20031;-75
2022/01/22 11:26:58;;;;;;;14.20;6.22;;;;;;;7.26;100.00;103630.47;5104192;28;20024;-76
2022/01/22 11:29:28;;;;;;;16.20;6.43;;;;;;;7.28;100.00;103623.63;5097820;28;20352;-76
2022/01/22 11:31:55;;;;;;;17.98;6.80;;;;;;;7.28;100.00;103633.19;5079411;28;20031;-75
2022/01/22 11:34:24;;;;;;;14.90;6.63;;;;;;;7.23;100.00;103628.53;5098065;28;20028;-76
2022/01/22 11:37:10;;;;;;;13.00;6.63;;;;;;;7.24;100.00;103637.28;5104590;28;20031;-76
2022/01/22 11:39:35;;;;;;;15.75;6.63;;;;;;;7.23;100.00;103640.69;5109888;28;20099;-75
2022/01/22 11:42:01;;;;;;;16.58;7.38;;;;;;;7.20;100.00;103624.75;5093150;27;20106;-75
2022/01/22 11:45:02;;;;;;;13.23;6.60;;;;;;;7.19;100.00;103628.16;5110674;27;20391;-76
2022/01/22 11:47:27;;;;;;;15.85;7.70;;;;;;;7.21;100.00;103631.81;5112005;27;20048;-76
2022/01/22 11:50:11;;;;;;;16.67;7.78;;;;;;;7.19;100.00;103634.34;5113195;27;20028;-76
2022/01/22 11:52:41;;;;;;;15.30;7.97;;;;;;;7.08;100.00;103630.91;5104776;28;20028;-75
2022/01/22 11:55:12;;;;;;;13.45;8.52;;;;;;;7.11;100.00;103625.00;5107067;28;20024;-83
2022/01/22 11:57:38;;;;;;;16.63;8.23;;;;;;;7.13;100.00;103622.47;5099397;28;20084;-81
2022/01/22 12:00:25;;;;;;;17.60;7.95;;;;;;;7.14;100.00;103617.34;5084314;28;20034;-81
2022/01/22 12:03:06;;;;;;;15.45;8.80;;;;;;;7.16;100.00;103622.72;5111128;28;20039;-83
2022/01/22 12:05:31;;;;;;;16.92;10.25;;;;;;;7.09;100.00;103624.88;5085395;28;20032;-80
2022/01/22 12:07:58;;;;;;;16.73;10.02;;;;;;;7.12;100.00;103618.94;5104314;28;20035;-81
2022/01/22 12:10:37;;;;;;;13.02;9.38;;;;;;;7.12;100.00;103625.88;5103101;28;20028;-83
2022/01/22 12:16:08;;;;;;;19.63;9.80;;;;;;;7.09;100.00;103617.03;5097380;28;20166;-75
2022/01/22 12:18:39;;;;;;;16.80;9.27;;;;;;;7.11;100.00;103608.34;5104280;28;20863;-73
2022/01/22 12:23:32;;;;;;;15.35;8.98;;;;;;;7.11;100.00;103603.13;5105386;28;20024;-74
2022/01/22 12:26:02;;;;;;;17.80;8.77;;;;;;;7.12;100.00;103611.06;5087109;28;20043;-75
2022/01/22 12:28:37;;;;;;;16.90;9.82;;;;;;;7.13;100.00;103612.91;5079361;28;20525;-73
2022/01/22 12:31:17;;;;;;;18.70;9.90;;;;;;;7.07;100.00;103613.38;5110732;28;20104;-75
2022/01/22 12:33:46;;;;;;;20.55;11.05;;;;;;;7.03;100.00;103618.25;5101894;28;20078;-77
2022/01/22 12:36:18;;;;;;;21.08;11.48;;;;;;;6.99;100.00;103626.69;5085439;28;20034;-78
2022/01/22 12:44:09;;;;;;;21.92;12.55;;;;;;;6.91;100.00;103615.63;5099344;28;20498;-79
2022/01/22 12:46:35;;;;;;;20.67;12.65;;;;;;;6.93;100.00;103614.00;5098470;28;20044;-77
2022/01/22 12:49:02;;;;;;;31.88;13.20;;;;;;;6.83;100.00;103608.88;5085300;28;20066;-78
2022/01/22 12:51:28;;;;;;;21.08;12.30;;;;;;;6.85;100.00;103610.84;5081013;28;20040;-78
2022/01/22 12:53:54;;;;;;;20.85;12.57;;;;;;;6.88;100.00;103611.06;5090280;28;20021;-77
2022/01/22 12:56:48;;;;;;;20.92;12.27;;;;;;;6.85;100.00;103613.44;5086316;28;20024;-78
2022/01/22 12:59:09;;;;;;;24.23;13.80;;;;;;;6.89;100.00;103610.28;5063778;28;20032;-80
2022/01/22 13:01:38;;;;;;;21.33;13.20;;;;;;;6.90;100.00;103613.78;5086347;28;20392;-78
2022/01/22 13:04:06;;;;;;;21.98;13.07;;;;;;;6.95;100.00;103607.19;5081986;28;20040;-78